If you wish to contribute or participate in the discussions about articles you are invited to join SKYbrary as a registered user

 Actions

Leon Airport

From SKYbrary Wiki

LELN
Airport
ICAO: LELN – IATA: LEN
Summary
Name Leon Airport
Region Europe
Territory Spain ES.gif
Location , Castilla y Leon
Serving Leon
Elevation 916.229 m
3,006 ft
3,006 ft916.229 m
Type medium airport
Coordinates 42° 35' 20.40" N, 5° 39' 20.00" W
Runways
Designator Length Width Surface ROPS
5/23 2100 m6,889.764 ft
45 m147.638 ft
ASP /
6/24 1100 m3,608.924 ft
100 m328.084 ft
GRE /


METAR
Observation LELN 102200Z AUTO 35008KT 290V040 9000 FEW040 BKN050 10/03 Q1017
Station Leon / Virgen Del Camino
Date/Time 10 June 2019 22:00:00
Wind direction 350°
Wind speed 08 kts
Lowest cloud amount few clouds
Temperature 10°C
Dew point 3°C
Humidity 61%
QNH 1017 hPa
Weather condition n/a